Time;durP1;ratioP1;P1;durP2;ratioP2;P2;SDS_P1;SDS_P2;PMS_P1;PMS_P2;Temp;Humidity;BMP_temperature;BMP_pressure;BME280_temperature;BME280_humidity;BME280_pressure;Samples;Min_cycle;Max_cycle;Signal;HPM_P1;HPM_P2
2022/08/04 00:02:15;;;;;;;10.23;8.53;;;;;;;19.40;100.00;100013.59;1640119;86;22135;-58
2022/08/04 00:05:06;;;;;;;10.67;8.43;;;;;;;19.44;100.00;100019.19;1638931;86;21382;-58
2022/08/04 00:08:04;;;;;;;9.18;8.30;;;;;;;19.48;100.00;100024.78;1640468;87;22056;-66
2022/08/04 00:10:33;;;;;;;10.40;7.83;;;;;;;19.48;100.00;100031.39;1639819;87;21091;-60
2022/08/04 00:13:02;;;;;;;9.73;8.63;;;;;;;19.45;100.00;100026.86;1621841;87;21122;-60
2022/08/04 00:15:29;;;;;;;9.03;8.10;;;;;;;19.47;100.00;100028.45;1638999;87;21479;-59
2022/08/04 00:18:07;;;;;;;9.43;8.43;;;;;;;19.47;100.00;100027.92;1668366;85;21281;-58
2022/08/04 00:20:39;;;;;;;9.13;8.17;;;;;;;19.43;100.00;100025.50;1639834;87;21021;-58
2022/08/04 00:23:06;;;;;;;12.27;8.20;;;;;;;19.41;100.00;100022.32;1639040;87;20957;-68
2022/08/04 00:25:34;;;;;;;10.13;8.93;;;;;;;19.45;100.00;100030.03;1668262;85;21011;-59
2022/08/04 00:28:01;;;;;;;10.70;8.57;;;;;;;19.45;100.00;100028.71;1639757;87;21762;-58
2022/08/04 00:30:29;;;;;;;9.27;8.37;;;;;;;19.48;100.00;100032.19;1667694;85;20895;-60
2022/08/04 00:32:57;;;;;;;9.57;8.57;;;;;;;19.42;100.00;100038.45;1640004;87;21800;-60
2022/08/04 00:35:25;;;;;;;10.10;8.87;;;;;;;19.47;100.00;100032.42;1639138;87;20966;-60
2022/08/04 00:37:52;;;;;;;10.73;8.93;;;;;;;19.47;100.00;100031.89;1668300;85;21150;-58
2022/08/04 00:40:51;;;;;;;9.43;8.43;;;;;;;19.44;100.00;100023.16;1639730;87;21542;-59
2022/08/04 00:43:34;;;;;;;12.63;10.03;;;;;;;19.42;100.00;100030.52;1667746;85;21040;-59
2022/08/04 00:46:38;;;;;;;11.27;9.40;;;;;;;19.43;100.00;100026.82;1639652;87;20924;-61
2022/08/04 00:49:36;;;;;;;13.17;9.97;;;;;;;19.52;100.00;100020.07;1639448;87;21024;-58
2022/08/04 00:52:33;;;;;;;11.27;10.00;;;;;;;19.48;100.00;100016.33;1667816;85;21158;-61
2022/08/04 00:55:21;;;;;;;10.17;9.17;;;;;;;19.54;100.00;100019.28;1667986;85;21989;-59
2022/08/04 00:58:23;;;;;;;10.63;9.53;;;;;;;19.62;100.00;100016.25;1667978;85;21106;-60
2022/08/04 01:00:58;;;;;;;10.80;9.53;;;;;;;19.54;100.00;100018.48;1667809;85;21118;-68
2022/08/04 01:03:42;;;;;;;13.07;10.07;;;;;;;19.50;100.00;100018.18;1668621;85;21076;-60
2022/08/04 01:06:14;;;;;;;10.97;9.80;;;;;;;19.50;100.00;100020.03;1651751;85;21455;-59
2022/08/04 01:09:04;;;;;;;13.67;10.03;;;;;;;19.51;100.00;100015.84;1680191;85;21287;-59
2022/08/04 01:11:50;;;;;;;11.78;10.58;;;;;;;19.49;100.00;100017.91;1680365;85;21702;-66
2022/08/04 01:14:51;;;;;;;10.93;9.30;;;;;;;19.69;100.00;100025.30;1680599;85;21508;-59
2022/08/04 01:17:38;;;;;;;11.63;10.47;;;;;;;19.65;100.00;100027.63;1641833;85;21493;-60
2022/08/04 01:20:07;;;;;;;12.20;11.00;;;;;;;19.61;100.00;100018.58;1681086;85;21026;-59
2022/08/04 01:22:49;;;;;;;11.67;10.37;;;;;;;19.56;100.00;100023.81;1681076;85;21073;-64
2022/08/04 01:26:07;;;;;;;12.77;11.40;;;;;;;19.61;100.00;100025.70;1681048;85;22011;-60
2022/08/04 01:28:57;;;;;;;11.20;10.10;;;;;;;19.65;100.00;100033.45;1680630;85;20995;-59
2022/08/04 01:31:56;;;;;;;11.40;10.20;;;;;;;19.67;100.00;100035.34;1679639;85;21539;-60
2022/08/04 01:34:24;;;;;;;10.93;9.83;;;;;;;19.64;100.00;100035.83;1659723;86;21615;-59
2022/08/04 01:37:09;;;;;;;13.07;11.77;;;;;;;19.72;100.00;100036.70;1659935;86;21335;-60
2022/08/04 01:39:41;;;;;;;17.93;10.83;;;;;;;19.69;100.00;100037.98;1668625;85;21859;-59
2022/08/04 01:42:10;;;;;;;11.37;9.80;;;;;;;19.67;100.00;100033.48;1680897;85;21516;-59
2022/08/04 01:44:39;;;;;;;13.17;11.00;;;;;;;19.63;100.00;100031.06;1680119;85;21591;-61
2022/08/04 01:47:07;;;;;;;11.83;10.40;;;;;;;19.58;100.00;100024.35;1655750;85;21447;-62
2022/08/04 01:49:34;;;;;;;11.50;10.30;;;;;;;19.52;100.00;100020.07;1680410;85;21140;-59
2022/08/04 01:52:02;;;;;;;12.77;10.43;;;;;;;19.46;100.00;100018.41;1680792;85;20960;-60
2022/08/04 01:54:29;;;;;;;12.80;10.97;;;;;;;19.45;100.00;100024.22;1680525;85;20964;-60
2022/08/04 01:56:56;;;;;;;12.47;11.17;;;;;;;19.37;100.00;100030.47;1679847;85;21015;-68
2022/08/04 01:59:24;;;;;;;11.87;10.73;;;;;;;19.34;100.00;100037.56;1680259;84;22364;-59
2022/08/04 02:01:51;;;;;;;12.30;11.07;;;;;;;19.29;100.00;100038.83;1680637;85;21812;-59
2022/08/04 02:04:20;;;;;;;13.03;11.10;;;;;;;19.19;100.00;100038.17;1680556;84;20999;-60
2022/08/04 02:06:55;;;;;;;15.07;11.63;;;;;;;19.16;100.00;100043.94;1680115;85;21087;-60
2022/08/04 02:09:39;;;;;;;12.37;10.90;;;;;;;19.20;100.00;100046.37;1680726;85;21401;-59
2022/08/04 02:12:36;;;;;;;12.30;10.77;;;;;;;19.16;100.00;100049.22;1680780;85;21066;-68
2022/08/04 02:15:37;;;;;;;11.77;10.03;;;;;;;19.16;100.00;100052.66;1674668;85;21903;-59
2022/08/04 02:18:19;;;;;;;12.90;11.60;;;;;;;19.17;100.00;100057.45;1680861;85;21357;-59
2022/08/04 02:20:48;;;;;;;15.30;10.70;;;;;;;19.10;100.00;100053.66;1680835;85;21529;-59
2022/08/04 02:23:36;;;;;;;11.30;10.20;;;;;;;19.04;100.00;100058.58;1680165;85;21023;-61
2022/08/04 02:26:12;;;;;;;11.23;10.13;;;;;;;19.16;100.00;100062.44;1680548;85;21529;-60
2022/08/04 02:28:50;;;;;;;13.70;11.40;;;;;;;19.14;100.00;100049.48;1679893;85;21135;-61
2022/08/04 02:31:25;;;;;;;13.10;11.03;;;;;;;19.19;100.00;100054.02;1680383;85;21006;-59
2022/08/04 02:34:23;;;;;;;13.53;10.67;;;;;;;19.27;100.00;100061.52;1680789;85;21030;-59
2022/08/04 02:36:50;;;;;;;14.27;12.00;;;;;;;19.22;100.00;100056.19;1680478;85;21097;-59
2022/08/04 02:39:21;;;;;;;16.30;11.83;;;;;;;19.31;100.00;100053.91;1680708;85;21451;-63
2022/08/04 02:41:49;;;;;;;12.25;11.10;;;;;;;19.30;100.00;100050.47;1680330;85;21753;-63
2022/08/04 02:44:21;;;;;;;12.90;11.30;;;;;;;19.37;100.00;100054.26;1680986;85;21081;-59
2022/08/04 02:46:51;;;;;;;11.07;9.57;;;;;;;19.42;100.00;100052.98;1680166;85;21091;-59
2022/08/04 02:49:18;;;;;;;13.08;11.78;;;;;;;19.48;100.00;100057.83;1680328;85;21476;-66
2022/08/04 02:51:50;;;;;;;13.70;12.23;;;;;;;19.58;100.00;100060.05;1680466;85;21062;-60
2022/08/04 02:54:20;;;;;;;12.50;11.30;;;;;;;19.56;100.00;100066.12;1679757;85;21166;-61
2022/08/04 02:56:47;;;;;;;13.50;12.13;;;;;;;19.66;100.00;100067.59;1679971;85;21392;-59
2022/08/04 02:59:14;;;;;;;14.53;11.67;;;;;;;19.72;100.00;100065.00;1680371;85;21027;-67
2022/08/04 03:01:41;;;;;;;13.90;12.30;;;;;;;19.82;100.00;100061.15;1680318;85;21051;-60
2022/08/04 03:04:43;;;;;;;14.27;12.77;;;;;;;19.90;100.00;100060.70;1680349;85;21091;-67
2022/08/04 03:07:35;;;;;;;16.15;13.40;;;;;;;19.96;100.00;100066.83;1680152;85;21690;-61
2022/08/04 03:10:44;;;;;;;15.00;13.47;;;;;;;20.13;100.00;100072.83;1680694;85;21309;-59
2022/08/04 03:13:48;;;;;;;15.43;13.83;;;;;;;20.17;100.00;100070.75;1680756;85;21145;-60
2022/08/04 03:16:36;;;;;;;14.43;12.90;;;;;;;20.26;100.00;100061.02;1679210;85;22102;-62
2022/08/04 03:19:53;;;;;;;15.20;13.53;;;;;;;20.34;100.00;100059.23;1680432;85;21024;-59
2022/08/04 03:22:40;;;;;;;14.67;13.23;;;;;;;20.50;100.00;100057.56;1679722;85;21321;-60
2022/08/04 03:25:46;;;;;;;17.50;15.80;;;;;;;20.63;100.00;100067.18;1680287;85;22505;-60
2022/08/04 03:28:27;;;;;;;16.33;14.60;;;;;;;20.83;100.00;100060.42;1680323;85;21019;-61
2022/08/04 03:31:11;;;;;;;15.10;13.60;;;;;;;21.02;100.00;100064.78;1680482;85;21061;-59
2022/08/04 03:33:55;;;;;;;15.57;14.07;;;;;;;21.11;100.00;100066.70;1680191;84;20974;-69
2022/08/04 03:37:02;;;;;;;15.03;13.53;;;;;;;21.19;100.00;100061.97;1680164;85;21847;-62
2022/08/04 03:39:48;;;;;;;15.87;14.33;;;;;;;21.29;100.00;100069.95;1655429;85;20990;-62
2022/08/04 03:42:41;;;;;;;15.37;13.23;;;;;;;21.43;100.00;100072.44;1680698;83;21035;-60
2022/08/04 03:45:25;;;;;;;17.20;14.23;;;;;;;21.47;100.00;100072.18;1680285;85;21043;-61
2022/08/04 03:48:23;;;;;;;17.53;15.43;;;;;;;21.43;100.00;100073.77;1680824;85;21021;-60
2022/08/04 03:54:47;;;;;;;19.10;15.30;;;;;;;21.61;100.00;100070.65;1680870;85;21010;-60
2022/08/04 03:57:34;;;;;;;16.03;13.83;;;;;;;21.71;100.00;100065.13;1680551;85;21690;-60
2022/08/04 04:00:11;;;;;;;15.60;14.00;;;;;;;21.86;100.00;100069.94;1680966;85;21007;-69
2022/08/04 04:03:15;;;;;;;17.40;15.27;;;;;;;22.03;100.00;100074.20;1680815;85;21086;-59
2022/08/04 04:06:12;;;;;;;16.23;14.68;;;;;;;22.05;100.00;100076.88;1679750;85;21199;-61
2022/08/04 04:09:21;;;;;;;15.57;14.07;;;;;;;22.16;100.00;100079.05;1680683;85;21516;-61
2022/08/04 04:12:14;;;;;;;15.77;13.93;;;;;;;22.55;100.00;100081.17;1680615;85;20907;-63
2022/08/04 04:14:47;;;;;;;15.60;14.10;;;;;;;23.34;100.00;100077.06;1681119;84;21546;-60
2022/08/04 04:17:57;;;;;;;16.07;13.30;;;;;;;24.07;100.00;100080.97;1681112;85;21106;-61
2022/08/04 04:20:49;;;;;;;15.50;13.77;;;;;;;24.27;100.00;100078.94;1680750;84;21158;-61
2022/08/04 04:23:49;;;;;;;16.27;14.67;;;;;;;24.25;100.00;100082.43;1680002;85;20995;-59
2022/08/04 04:26:39;;;;;;;15.80;14.20;;;;;;;24.23;100.00;100084.56;1680446;85;20943;-68
2022/08/04 04:29:28;;;;;;;15.10;13.57;;;;;;;24.00;100.00;100082.06;1681079;85;21012;-61
2022/08/04 04:32:22;;;;;;;16.00;14.60;;;;;;;23.90;100.00;100082.11;1680409;85;20999;-69
2022/08/04 04:35:20;;;;;;;14.67;13.17;;;;;;;23.82;100.00;100083.23;1681391;85;21121;-60
2022/08/04 04:38:13;;;;;;;15.27;13.77;;;;;;;23.99;100.00;100081.02;1681298;84;21532;-60
2022/08/04 04:41:17;;;;;;;15.57;14.00;;;;;;;24.57;100.00;100081.67;1680351;85;21058;-71
2022/08/04 04:44:12;;;;;;;14.50;13.25;;;;;;;25.21;100.00;100080.52;1680919;85;21583;-61
2022/08/04 04:47:09;;;;;;;17.67;14.30;;;;;;;25.30;100.00;100081.47;1680696;85;21471;-62
2022/08/04 04:50:05;;;;;;;16.12;14.43;;;;;;;25.22;100.00;100080.77;1679943;85;21111;-62
2022/08/04 04:52:46;;;;;;;15.63;14.13;;;;;;;24.96;100.00;100078.37;1578127;90;21044;-62
2022/08/04 04:55:26;;;;;;;16.50;14.98;;;;;;;24.71;100.00;100085.28;1656356;85;21484;-70
2022/08/04 04:57:59;;;;;;;14.83;13.53;;;;;;;24.40;100.00;100081.55;1680559;85;21079;-60
2022/08/04 05:01:04;;;;;;;15.37;14.07;;;;;;;24.10;100.00;100091.86;1681248;85;21646;-71
2022/08/04 05:03:48;;;;;;;15.93;14.23;;;;;;;24.01;100.00;100088.97;1680744;83;21330;-61
2022/08/04 05:06:39;;;;;;;16.20;14.60;;;;;;;24.15;100.00;100087.03;1680277;85;21050;-62
2022/08/04 05:09:38;;;;;;;17.70;16.07;;;;;;;24.33;100.00;100094.90;1680887;85;21068;-61
2022/08/04 05:12:35;;;;;;;16.10;14.27;;;;;;;24.56;100.00;100088.08;1680409;85;21720;-64
2022/08/04 05:15:05;;;;;;;16.13;14.53;;;;;;;24.72;100.00;100094.86;1680155;85;21016;-62
2022/08/04 05:17:36;;;;;;;15.23;13.80;;;;;;;24.61;100.00;100096.02;1680835;85;21292;-61
2022/08/04 05:20:13;;;;;;;16.12;14.53;;;;;;;24.70;100.00;100099.66;1681147;85;21579;-63
2022/08/04 05:22:57;;;;;;;14.60;13.23;;;;;;;24.79;100.00;100097.99;1680572;85;21015;-68
2022/08/04 05:25:38;;;;;;;14.60;13.20;;;;;;;24.80;100.00;100095.58;1670302;85;21521;-61
2022/08/04 05:28:11;;;;;;;14.85;13.53;;;;;;;24.84;100.00;100101.14;1681172;85;22553;-63
2022/08/04 05:30:47;;;;;;;16.73;14.40;;;;;;;25.01;100.00;100100.19;1680675;85;21447;-62
2022/08/04 05:33:11;;;;;;;15.05;13.58;;;;;;;25.10;100.00;100109.72;1681691;83;20953;-62
2022/08/04 05:35:44;;;;;;;14.13;12.67;;;;;;;25.15;100.00;100110.98;1680902;85;21058;-63
2022/08/04 05:38:13;;;;;;;15.83;14.23;;;;;;;25.20;100.00;100114.41;1680298;85;20999;-62
2022/08/04 05:40:40;;;;;;;14.85;13.38;;;;;;;25.35;100.00;100116.66;1681501;85;21873;-62
2022/08/04 05:43:07;;;;;;;16.42;14.83;;;;;;;25.42;100.00;100111.74;1681394;85;21093;-63
2022/08/04 05:45:35;;;;;;;15.48;13.93;;;;;;;25.66;100.00;100114.41;1681126;85;21110;-62
2022/08/04 05:48:03;;;;;;;17.07;15.45;;;;;;;25.83;100.00;100109.38;1680907;85;20944;-71
2022/08/04 05:50:31;;;;;;;14.53;13.20;;;;;;;26.15;100.00;100104.66;1681072;85;21031;-63
2022/08/04 05:52:58;;;;;;;15.83;14.43;;;;;;;26.58;100.00;100101.07;1656138;85;21074;-62
2022/08/04 05:55:26;;;;;;;14.60;13.20;;;;;;;26.89;100.00;100096.77;1681061;84;21162;-62
2022/08/04 05:57:53;;;;;;;14.70;13.30;;;;;;;27.25;100.00;100097.47;1681067;85;20908;-64
2022/08/04 06:00:20;;;;;;;14.80;13.48;;;;;;;27.65;100.00;100095.03;1680107;85;21671;-64
2022/08/04 06:02:48;;;;;;;13.62;12.40;;;;;;;27.94;100.00;100088.55;1680339;85;22031;-63
2022/08/04 06:05:16;;;;;;;13.50;12.30;;;;;;;28.12;100.00;100088.93;1680692;85;21048;-62
2022/08/04 06:07:44;;;;;;;13.48;12.07;;;;;;;28.50;100.00;100089.92;1680724;85;21477;-62
2022/08/04 06:10:11;;;;;;;13.25;11.95;;;;;;;28.85;100.00;100090.88;1680098;85;20997;-70
2022/08/04 06:12:45;;;;;;;12.73;11.43;;;;;;;29.26;100.00;100094.61;1680398;84;21917;-63
2022/08/04 06:15:16;;;;;;;12.37;11.18;;;;;;;29.76;100.00;100096.93;1681132;85;21028;-62
2022/08/04 06:17:51;;;;;;;12.73;11.40;;;;;;;30.41;100.00;100087.66;1681126;85;21067;-62
2022/08/04 06:20:18;;;;;;;11.57;10.38;;;;;;;31.00;100.00;100081.88;1654659;85;21851;-65
2022/08/04 06:22:48;;;;;;;10.78;9.60;;;;;;;31.52;100.00;100080.00;1680654;85;21566;-62
2022/08/04 06:25:19;;;;;;;11.65;10.55;;;;;;;31.90;100.00;100083.41;1680809;85;21042;-63
2022/08/04 06:27:46;;;;;;;;;;;;;;;32.35;100.00;100078.62;1682810;85;21012;-67
2022/08/04 06:30:14;;;;;;;10.58;9.68;;;;;;;32.69;100.00;100079.36;1679582;85;20173;-62
2022/08/04 06:32:54;;;;;;;9.58;8.58;;;;;;;33.06;100.00;100078.84;1680933;85;21234;-63
2022/08/04 06:35:17;;;;;;;10.10;9.10;;;;;;;33.53;100.00;100079.72;1681590;83;20940;-61
2022/08/04 06:37:45;;;;;;;9.98;9.03;;;;;;;34.00;100.00;100080.48;1680134;85;21070;-62
2022/08/04 06:40:15;;;;;;;9.55;8.63;;;;;;;34.34;100.00;100080.98;1681240;85;21047;-61
2022/08/04 06:42:42;;;;;;;10.63;9.60;;;;;;;34.83;100.00;100075.27;1681735;85;21074;-62
2022/08/04 06:45:10;;;;;;;8.18;7.37;;;;;;;35.14;100.00;100071.74;1681307;85;21774;-62
2022/08/04 06:47:40;;;;;;;9.08;8.18;;;;;;;35.52;92.99;100062.12;1680217;85;21069;-62
2022/08/04 06:50:08;;;;;;;8.60;7.73;;;;;;;35.96;87.77;100061.83;1681484;85;21421;-62
2022/08/04 06:52:35;;;;;;;8.35;7.55;;;;;;;36.77;83.68;100059.77;1681332;85;21277;-60
2022/08/04 06:55:05;;;;;;;8.80;7.95;;;;;;;37.49;70.00;100060.23;1681555;85;21564;-61
2022/08/04 06:57:33;;;;;;;7.80;7.10;;;;;;;38.08;63.97;100069.27;1655946;85;21342;-63
2022/08/04 07:00:09;;;;;;;8.40;6.90;;;;;;;38.55;57.32;100072.62;1655763;85;21003;-61
2022/08/04 07:02:45;;;;;;;9.05;8.25;;;;;;;39.06;53.43;100073.77;1681085;85;21019;-60
2022/08/04 07:05:12;;;;;;;8.80;7.95;;;;;;;39.32;50.62;100074.91;1680743;85;20972;-71
2022/08/04 07:07:40;;;;;;;8.75;7.95;;;;;;;39.32;49.83;100072.19;1668735;85;21556;-60
2022/08/04 07:10:08;;;;;;;8.28;7.58;;;;;;;39.04;49.12;100071.44;1640362;87;21149;-60
2022/08/04 07:12:38;;;;;;;8.90;8.10;;;;;;;38.68;51.17;100073.91;1669051;85;21462;-61
2022/08/04 07:15:06;;;;;;;8.63;7.83;;;;;;;38.75;51.54;100075.88;1669004;85;21082;-67
2022/08/04 07:17:35;;;;;;;8.45;7.65;;;;;;;38.83;51.94;100071.30;1668892;85;21517;-60
2022/08/04 07:20:04;;;;;;;7.55;6.85;;;;;;;39.00;49.57;100075.31;1669164;85;20952;-62
2022/08/04 07:22:32;;;;;;;6.37;5.78;;;;;;;38.98;47.88;100066.72;1640473;87;21307;-62
2022/08/04 07:24:59;;;;;;;7.28;6.22;;;;;;;39.01;48.03;100071.41;1668773;85;20940;-72
2022/08/04 07:27:26;;;;;;;5.95;5.45;;;;;;;39.19;46.40;100065.48;1668006;85;20991;-61
2022/08/04 07:29:55;;;;;;;5.10;4.40;;;;;;;39.35;43.14;100059.73;1640058;87;21119;-60
2022/08/04 07:32:23;;;;;;;5.30;4.12;;;;;;;39.33;41.93;100062.86;1668529;85;20952;-61
2022/08/04 07:34:50;;;;;;;4.53;4.10;;;;;;;39.16;41.89;100058.06;1668709;85;22052;-60
2022/08/04 07:37:17;;;;;;;4.25;3.85;;;;;;;39.08;42.08;100056.47;1667575;85;21069;-72
2022/08/04 07:39:45;;;;;;;4.37;3.60;;;;;;;39.11;41.28;100059.80;1668228;85;21489;-60
2022/08/04 07:42:13;;;;;;;4.17;3.30;;;;;;;38.88;40.56;100059.47;1667744;85;21016;-61
2022/08/04 07:44:41;;;;;;;3.87;3.47;;;;;;;38.76;40.62;100065.20;1639634;87;21146;-61
2022/08/04 07:47:08;;;;;;;4.10;3.62;;;;;;;38.69;39.48;100061.06;1663482;85;21158;-60
2022/08/04 07:49:36;;;;;;;5.60;4.37;;;;;;;38.23;40.01;100061.45;1667596;85;21115;-61
2022/08/04 07:52:04;;;;;;;3.92;3.08;;;;;;;37.85;41.43;100066.67;1639531;87;21182;-61
2022/08/04 07:54:32;;;;;;;3.15;2.80;;;;;;;37.57;42.31;100071.97;1668302;85;21506;-59
2022/08/04 07:56:59;;;;;;;3.08;2.47;;;;;;;37.55;42.58;100058.56;1667975;85;21490;-59
2022/08/04 07:59:26;;;;;;;3.95;2.83;;;;;;;37.71;42.32;100060.48;1649280;85;21171;-58
2022/08/04 08:01:53;;;;;;;3.72;2.80;;;;;;;37.97;42.02;100061.77;1639055;87;21023;-60
2022/08/04 08:04:21;;;;;;;4.12;3.05;;;;;;;38.51;40.92;100064.23;1668533;85;21520;-59
2022/08/04 08:06:49;;;;;;;3.37;2.50;;;;;;;38.29;40.12;100068.67;1642277;86;21455;-60
2022/08/04 08:09:19;;;;;;;2.98;2.58;;;;;;;38.00;41.43;100062.98;1593814;85;22430;-58
2022/08/04 08:11:48;;;;;;;3.65;2.80;;;;;;;38.09;41.17;100065.39;1675448;85;21232;-64
2022/08/04 08:14:16;;;;;;;3.67;2.73;;;;;;;38.41;40.32;100062.97;1647072;87;21078;-59
2022/08/04 08:16:43;;;;;;;3.10;2.50;;;;;;;38.94;40.22;100066.11;1674847;85;21338;-59
2022/08/04 08:19:10;;;;;;;2.83;2.30;;;;;;;39.42;39.62;100062.50;1675847;85;21050;-59
2022/08/04 08:21:38;;;;;;;3.80;2.72;;;;;;;39.74;37.17;100061.84;1675340;85;21086;-72
2022/08/04 08:24:06;;;;;;;3.52;2.30;;;;;;;39.84;36.59;100059.73;1646206;87;21362;-59
2022/08/04 08:26:34;;;;;;;2.85;2.10;;;;;;;39.98;35.63;100055.68;1675012;85;21008;-60
2022/08/04 08:29:03;;;;;;;2.67;2.12;;;;;;;39.87;34.73;100055.66;1675682;85;21094;-61
2022/08/04 08:31:30;;;;;;;2.83;2.10;;;;;;;39.17;35.62;100056.89;1658444;86;21446;-59
2022/08/04 08:33:58;;;;;;;3.60;2.10;;;;;;;38.29;36.50;100058.56;1658776;86;20960;-71
2022/08/04 08:36:43;;;;;;;2.52;2.10;;;;;;;37.30;39.36;100056.27;1658121;86;22402;-68
2022/08/04 08:39:30;;;;;;;3.10;2.10;;;;;;;36.83;40.11;100057.54;1659090;86;20996;-60
2022/08/04 08:42:20;;;;;;;2.72;1.90;;;;;;;36.84;41.13;100058.31;1663073;85;21539;-66
2022/08/04 08:45:10;;;;;;;;;;;;;;;36.86;39.68;100052.73;1661287;86;21529;-60
2022/08/04 08:48:18;;;;;;;2.77;1.90;;;;;;;37.21;40.25;100054.41;1658474;86;20283;-59
2022/08/04 08:51:21;;;;;;;3.15;1.90;;;;;;;37.79;38.04;100050.47;1633244;86;22360;-58
2022/08/04 08:54:33;;;;;;;4.35;2.20;;;;;;;38.17;39.96;100054.77;1658914;86;21509;-60
2022/08/04 08:57:37;;;;;;;2.70;1.90;;;;;;;39.11;37.00;100053.77;1659075;86;21083;-59
2022/08/04 09:00:24;;;;;;;3.42;2.20;;;;;;;39.46;36.39;100051.61;1658918;86;21066;-59
2022/08/04 09:03:37;;;;;;;2.98;2.05;;;;;;;39.33;34.55;100046.50;1658902;86;21085;-63
2022/08/04 09:06:26;;;;;;;3.77;2.05;;;;;;;38.92;35.98;100046.64;1659335;86;21272;-71
2022/08/04 09:09:23;;;;;;;4.45;2.30;;;;;;;38.99;37.12;100057.40;1671350;85;21515;-59
2022/08/04 09:12:10;;;;;;;2.85;1.98;;;;;;;39.19;35.61;100050.48;1670675;85;20959;-59
2022/08/04 09:14:48;;;;;;;2.85;2.25;;;;;;;39.61;35.74;100049.12;1672168;85;20906;-59
2022/08/04 09:17:45;;;;;;;3.17;2.40;;;;;;;39.79;35.43;100046.48;1663016;85;21063;-69
2022/08/04 09:20:38;;;;;;;3.00;2.30;;;;;;;39.61;34.48;100045.81;1671898;85;21280;-59
2022/08/04 09:23:19;;;;;;;3.50;2.30;;;;;;;38.99;36.11;100053.31;1671736;85;21352;-58
2022/08/04 09:26:03;;;;;;;2.92;2.30;;;;;;;38.54;36.57;100054.73;1671669;85;21067;-58
2022/08/04 09:28:49;;;;;;;3.08;2.20;;;;;;;38.14;37.74;100054.15;1670078;85;22385;-59
2022/08/04 09:31:23;;;;;;;3.85;2.40;;;;;;;37.85;38.58;100051.13;1671413;85;21074;-58
2022/08/04 09:34:13;;;;;;;3.10;2.20;;;;;;;37.73;38.53;100059.52;1671319;85;21871;-71
2022/08/04 09:37:09;;;;;;;3.47;2.83;;;;;;;37.54;39.04;100050.95;1671830;85;21051;-58
2022/08/04 09:39:43;;;;;;;3.72;2.33;;;;;;;37.74;38.91;100054.31;1670633;85;22110;-58
2022/08/04 09:42:34;;;;;;;3.05;2.30;;;;;;;38.16;39.06;100052.62;1670721;85;21086;-59
2022/08/04 09:45:19;;;;;;;7.78;2.20;;;;;;;38.46;37.48;100057.20;1670690;85;21497;-65
2022/08/04 09:47:59;;;;;;;2.90;1.92;;;;;;;38.52;37.55;100049.45;1670616;85;21256;-57
2022/08/04 09:50:36;;;;;;;;;;;;;;;38.38;37.20;100052.86;1673025;85;21022;-68
2022/08/04 09:53:35;;;;;;;3.08;2.08;;;;;;;38.22;37.37;100047.61;1671670;85;20341;-58
2022/08/04 09:56:16;;;;;;;2.92;1.92;;;;;;;38.19;38.29;100053.83;1670790;85;20998;-69
2022/08/04 09:59:03;;;;;;;4.20;2.05;;;;;;;37.90;37.67;100054.12;1651463;85;21438;-58
2022/08/04 10:01:30;;;;;;;3.27;2.20;;;;;;;37.19;37.79;100058.84;1670549;85;21600;-67
2022/08/04 10:04:08;;;;;;;2.50;1.95;;;;;;;36.90;39.85;100048.69;1670798;85;21538;-58
2022/08/04 10:07:15;;;;;;;3.67;2.52;;;;;;;36.72;39.58;100046.51;1670285;85;21019;-57
2022/08/04 10:10:26;;;;;;;4.40;2.98;;;;;;;36.33;41.46;100046.41;1658509;86;21484;-59
2022/08/04 10:13:18;;;;;;;3.62;2.55;;;;;;;35.76;42.38;100045.58;1658568;86;21007;-57
2022/08/04 10:16:06;;;;;;;3.58;2.50;;;;;;;35.21;43.51;100042.67;1658309;86;21183;-58
2022/08/04 10:19:08;;;;;;;4.50;2.85;;;;;;;34.82;44.18;100042.55;1658313;86;21547;-57
2022/08/04 10:22:17;;;;;;;3.50;2.47;;;;;;;34.61;45.54;100045.53;1657909;86;21066;-69
2022/08/04 10:25:04;;;;;;;3.37;2.67;;;;;;;34.45;46.98;100042.02;1658519;86;21945;-59
2022/08/04 10:27:42;;;;;;;3.50;2.45;;;;;;;34.39;46.95;100041.48;1659042;86;21173;-57
2022/08/04 10:30:12;;;;;;;3.12;2.40;;;;;;;34.37;49.80;100035.64;1658141;86;21852;-61
2022/08/04 10:32:54;;;;;;;4.40;3.67;;;;;;;34.33;47.37;100040.18;1658059;86;21083;-64
2022/08/04 10:35:25;;;;;;;6.78;6.08;;;;;;;34.23;48.69;100036.63;1649735;86;20963;-57
2022/08/04 10:38:12;;;;;;;7.33;6.03;;;;;;;34.42;49.93;100035.94;1657972;86;21130;-58
2022/08/04 10:40:46;;;;;;;4.37;3.83;;;;;;;34.27;48.99;100036.94;1658741;86;21035;-57
2022/08/04 10:43:53;;;;;;;5.00;3.22;;;;;;;34.14;47.76;100030.04;1651349;86;21327;-57
2022/08/04 10:46:28;;;;;;;4.05;2.80;;;;;;;34.04;49.13;100040.00;1658716;86;21015;-57
2022/08/04 10:49:00;;;;;;;3.58;2.90;;;;;;;33.64;50.06;100029.45;1658020;86;32606;-68
2022/08/04 10:51:47;;;;;;;7.05;5.55;;;;;;;33.40;52.32;100020.03;1658812;85;21157;-57
2022/08/04 10:54:18;;;;;;;5.53;4.25;;;;;;;33.31;56.09;100028.84;1658757;86;21055;-68
2022/08/04 10:57:13;;;;;;;5.62;3.80;;;;;;;33.14;55.37;100027.96;1658055;86;21529;-59
2022/08/04 11:00:08;;;;;;;6.67;4.03;;;;;;;32.90;58.42;100019.30;1640739;86;21104;-59
2022/08/04 11:02:56;;;;;;;33.78;22.30;;;;;;;32.72;70.51;100015.83;1659072;86;21066;-58
2022/08/04 11:05:38;;;;;;;25.88;17.48;;;;;;;32.52;83.02;100016.16;1658920;86;21024;-69
2022/08/04 11:08:28;;;;;;;29.70;22.37;;;;;;;32.39;92.73;100016.13;1658886;86;21987;-58
2022/08/04 11:11:30;;;;;;;22.15;18.32;;;;;;;32.32;86.41;100007.80;1658620;86;21187;-63
2022/08/04 11:14:20;;;;;;;12.63;10.00;;;;;;;32.17;84.71;100018.67;1658835;86;21000;-57
2022/08/04 11:17:03;;;;;;;13.13;11.20;;;;;;;32.07;87.19;100019.65;1658646;86;21771;-57
2022/08/04 11:19:47;;;;;;;12.18;10.93;;;;;;;31.84;90.62;100013.25;1658839;86;21003;-57
2022/08/04 11:22:24;;;;;;;12.63;10.98;;;;;;;31.61;86.78;100024.95;1658161;86;21157;-58
2022/08/04 11:25:21;;;;;;;13.62;12.23;;;;;;;31.35;88.78;100025.70;1658821;86;21801;-56
2022/08/04 11:28:15;;;;;;;9.75;8.83;;;;;;;31.15;91.39;100029.94;1658014;86;21101;-59
2022/08/04 11:31:07;;;;;;;6.28;4.40;;;;;;;30.70;99.21;100057.36;1658720;86;21027;-69
2022/08/04 11:33:48;;;;;;;5.25;4.75;;;;;;;30.70;99.21;100057.36;1658545;86;21082;-57
2022/08/04 11:36:27;;;;;;;4.42;3.90;;;;;;;30.35;100.00;100060.72;1658440;86;21083;-68
2022/08/04 11:39:15;;;;;;;4.40;3.87;;;;;;;29.89;100.00;100066.19;1658792;86;22453;-57
2022/08/04 11:41:59;;;;;;;5.22;4.10;;;;;;;29.45;100.00;100066.70;1658436;86;20916;-58
2022/08/04 11:44:54;;;;;;;5.17;4.58;;;;;;;29.06;100.00;100073.72;1658203;86;21527;-58
2022/08/04 11:47:29;;;;;;;5.70;4.78;;;;;;;28.81;100.00;100073.27;1658194;86;21105;-60
2022/08/04 11:50:32;;;;;;;6.30;4.78;;;;;;;28.57;100.00;100079.00;1658348;86;21020;-59
2022/08/04 11:52:58;;;;;;;5.25;4.60;;;;;;;28.31;100.00;100085.52;1658546;86;21760;-59
2022/08/04 11:55:27;;;;;;;5.78;5.20;;;;;;;27.98;100.00;100086.30;1658301;86;21570;-69
2022/08/04 11:57:54;;;;;;;5.62;4.85;;;;;;;27.67;100.00;100101.44;1658951;86;21934;-61
2022/08/04 12:00:22;;;;;;;5.90;4.78;;;;;;;27.41;100.00;100110.78;1656424;86;21100;-61
2022/08/04 12:03:20;;;;;;;6.50;5.83;;;;;;;27.16;100.00;100114.77;1658786;86;20987;-64
2022/08/04 12:06:08;;;;;;;7.33;6.45;;;;;;;26.85;100.00;100109.14;1658497;86;21243;-63
2022/08/04 12:09:08;;;;;;;7.27;6.57;;;;;;;26.55;100.00;100105.11;1658552;86;21545;-64
2022/08/04 12:11:57;;;;;;;8.57;6.10;;;;;;;26.33;100.00;100089.70;1658589;86;21058;-67
2022/08/04 12:14:48;;;;;;;8.83;6.60;;;;;;;26.10;100.00;100083.38;1658633;86;21070;-62
2022/08/04 12:17:30;;;;;;;8.53;7.75;;;;;;;26.00;100.00;100072.05;1658590;86;21050;-63
2022/08/04 12:20:04;;;;;;;10.13;8.63;;;;;;;25.95;100.00;100060.36;1658964;86;22223;-60